Climatologie pour Saint-Brevin les Pins
Jour • Résumé pour avril 17, 2017 Système :  Métrique    Anglais   Mixte
« - 1 jour
+ 1 jour »
Jour Semaine Mois Année Personnalisé
  Maximum : Minimum : Moyenne :
Température sous abri : 15.6 °C 3.4 °C 10.5 °C
Point de rosée : 11.8 °C 2.9 °C 7.7 °C
Humidité : 97 % 65 % 84 %
Vitesse du vent : 16.1 km/h 0.0 km/h 3.4 km/h
Rafale : 24.1 km/h - -
Direction :- - SSE
Pression : 1024.9 hPa 1021.9 hPa -
Précipitations : 0.0 mm    
Historical Graphs
 
 
Tableau de données pour avril 17, 2017
Heure Tempé Pt rosée Pression Vent Vitesse Rafale Humidité Taux pluie (/hr) Soleil
00:00 8.2 °C 7.3 °C 1024.6 hPa Calm     94 % 0.0 mm 0 W/m2
00:05 8.0 °C 7.1 °C 1024.6 hPa Calm     94 % 0.0 mm 0 W/m2
00:10 7.7 °C 6.8 °C 1024.6 hPa Calm   1.6 km/h 94 % 0.0 mm 0 W/m2
00:15 7.8 °C 6.9 °C 1024.6 hPa Calm   3.2 km/h 94 % 0.0 mm 0 W/m2
00:20 7.7 °C 6.8 °C 1024.6 hPa Calm   3.2 km/h 94 % 0.0 mm 0 W/m2
00:25 7.6 °C 6.7 °C 1024.9 hPa Calm   3.2 km/h 94 % 0.0 mm 0 W/m2
00:30 7.8 °C 7.0 °C 1024.9 hPa North 3.2 km/h 6.4 km/h 95 % 0.0 mm 0 W/m2
00:35 7.8 °C 7.1 °C 1024.6 hPa Calm   6.4 km/h 95 % 0.0 mm 0 W/m2
00:40 7.7 °C 7.0 °C 1024.6 hPa Calm   6.4 km/h 95 % 0.0 mm 0 W/m2
00:45 7.9 °C 7.2 °C 1024.6 hPa Calm   6.4 km/h 95 % 0.0 mm 0 W/m2
00:50 8.1 °C 7.3 °C 1024.6 hPa Calm   6.4 km/h 95 % 0.0 mm 0 W/m2
00:55 8.1 °C 7.4 °C 1024.6 hPa NNE 1.6 km/h 6.4 km/h 95 % 0.0 mm 0 W/m2
01:00 8.1 °C 7.3 °C 1024.6 hPa NNE 3.2 km/h 9.7 km/h 95 % 0.0 mm 0 W/m2
01:05 8.1 °C 7.3 °C 1024.6 hPa NE 6.4 km/h 9.7 km/h 95 % 0.0 mm 0 W/m2
01:10 8.1 °C 7.4 °C 1024.6 hPa NE 3.2 km/h 8.0 km/h 95 % 0.0 mm 0 W/m2
01:15 8.0 °C 7.1 °C 1024.6 hPa Calm   8.0 km/h 94 % 0.0 mm 0 W/m2
01:20 8.0 °C 7.1 °C 1024.6 hPa NNE 8.0 km/h 9.7 km/h 94 % 0.0 mm 0 W/m2
01:25 7.9 °C 7.0 °C 1024.6 hPa NNE 6.4 km/h 11.3 km/h 94 % 0.0 mm 0 W/m2
01:30 7.9 °C 6.8 °C 1024.6 hPa NE 3.2 km/h 11.3 km/h 93 % 0.0 mm 0 W/m2
01:35 7.8 °C 6.7 °C 1024.6 hPa NE 3.2 km/h 9.7 km/h 93 % 0.0 mm 0 W/m2
01:40 7.8 °C 6.8 °C 1024.6 hPa NE 4.8 km/h 9.7 km/h 93 % 0.0 mm 0 W/m2
01:45 7.7 °C 6.7 °C 1024.6 hPa Calm   8.0 km/h 93 % 0.0 mm 0 W/m2
01:50 7.8 °C 6.7 °C 1024.6 hPa Calm   8.0 km/h 93 % 0.0 mm 0 W/m2
01:55 7.8 °C 6.7 °C 1024.6 hPa Calm   8.0 km/h 93 % 0.0 mm 0 W/m2
02:00 7.7 °C 6.5 °C 1024.6 hPa NE 4.8 km/h 6.4 km/h 92 % 0.0 mm 0 W/m2
02:05 7.7 °C 6.4 °C 1024.6 hPa Calm   6.4 km/h 92 % 0.0 mm 0 W/m2
02:10 7.6 °C 6.3 °C 1024.6 hPa Calm   4.8 km/h 92 % 0.0 mm 0 W/m2
02:15 7.4 °C 6.2 °C 1024.6 hPa NE 1.6 km/h 4.8 km/h 92 % 0.0 mm 0 W/m2
02:20 7.2 °C 6.0 °C 1024.3 hPa Calm   4.8 km/h 92 % 0.0 mm 0 W/m2
02:25 6.9 °C 5.7 °C 1024.3 hPa Calm   4.8 km/h 92 % 0.0 mm 0 W/m2
02:30 6.8 °C 5.7 °C 1024.3 hPa NE 1.6 km/h 4.8 km/h 93 % 0.0 mm 0 W/m2
02:35 6.8 °C 5.9 °C 1024.3 hPa Calm   4.8 km/h 94 % 0.0 mm 0 W/m2
02:40 6.9 °C 5.8 °C 1024.3 hPa Calm   4.8 km/h 93 % 0.0 mm 0 W/m2
02:45 6.8 °C 5.9 °C 1024.3 hPa Calm   4.8 km/h 94 % 0.0 mm 0 W/m2
02:50 6.6 °C 5.6 °C 1024.3 hPa Calm   3.2 km/h 93 % 0.0 mm 0 W/m2
02:55 6.5 °C 5.4 °C 1024.3 hPa Calm   4.8 km/h 93 % 0.0 mm 0 W/m2
03:00 6.3 °C 5.4 °C 1023.9 hPa Calm   4.8 km/h 94 % 0.0 mm 0 W/m2
03:05 6.4 °C 5.5 °C 1023.9 hPa Calm   1.6 km/h 94 % 0.0 mm 0 W/m2
03:10 6.4 °C 5.5 °C 1023.9 hPa ENE 3.2 km/h 6.4 km/h 94 % 0.0 mm 0 W/m2
03:15 6.4 °C 5.5 °C 1023.9 hPa Calm   6.4 km/h 94 % 0.0 mm 0 W/m2
03:25 6.4 °C 5.5 °C 1023.9 hPa Calm   6.4 km/h 94 % 0.0 mm 0 W/m2
03:30 6.3 °C 5.4 °C 1023.6 hPa Calm   1.6 km/h 94 % 0.0 mm 0 W/m2
03:35 6.1 °C 5.2 °C 1023.6 hPa Calm   3.2 km/h 94 % 0.0 mm 0 W/m2
03:40 5.9 °C 5.1 °C 1023.6 hPa Calm   3.2 km/h 94 % 0.0 mm 0 W/m2
03:45 6.0 °C 5.1 °C 1023.6 hPa East 1.6 km/h 8.0 km/h 94 % 0.0 mm 0 W/m2
03:50 5.9 °C 5.1 °C 1023.6 hPa East 1.6 km/h 8.0 km/h 94 % 0.0 mm 0 W/m2
03:55 5.8 °C 4.9 °C 1023.6 hPa Calm   8.0 km/h 94 % 0.0 mm 0 W/m2
04:00 5.8 °C 4.9 °C 1023.6 hPa Calm   8.0 km/h 94 % 0.0 mm 0 W/m2
04:05 5.7 °C 4.8 °C 1023.6 hPa Calm   1.6 km/h 94 % 0.0 mm 0 W/m2
04:10 5.6 °C 4.7 °C 1023.6 hPa Calm     94 % 0.0 mm 0 W/m2
04:15 5.7 °C 4.9 °C 1023.6 hPa Calm   1.6 km/h 95 % 0.0 mm 0 W/m2
04:20 5.7 °C 4.9 °C 1023.6 hPa Calm   1.6 km/h 95 % 0.0 mm 0 W/m2
04:25 5.6 °C 4.7 °C 1023.6 hPa Calm   1.6 km/h 94 % 0.0 mm 0 W/m2
04:30 5.4 °C 4.7 °C 1023.6 hPa Calm     95 % 0.0 mm 0 W/m2
04:35 5.4 °C 4.5 °C 1023.6 hPa Calm     94 % 0.0 mm 0 W/m2
04:40 5.2 °C 4.3 °C 1023.6 hPa Calm     94 % 0.0 mm 0 W/m2
04:45 4.9 °C 4.1 °C 1023.6 hPa Calm     94 % 0.0 mm 0 W/m2
04:50 4.9 °C 4.2 °C 1023.6 hPa Calm     95 % 0.0 mm 0 W/m2
04:55 4.8 °C 4.0 °C 1023.6 hPa Calm     95 % 0.0 mm 0 W/m2
05:00 4.6 °C 3.8 °C 1023.6 hPa Calm     95 % 0.0 mm 0 W/m2
05:05 4.6 °C 3.9 °C 1023.2 hPa Calm     95 % 0.0 mm 0 W/m2
05:15 4.4 °C 3.7 °C 1023.2 hPa Calm     95 % 0.0 mm 0 W/m2
05:20 4.2 °C 3.5 °C 1023.2 hPa Calm     95 % 0.0 mm 0 W/m2
05:25 4.3 °C 3.7 °C 1023.2 hPa Calm     96 % 0.0 mm 0 W/m2
05:30 4.2 °C 3.6 °C 1023.2 hPa Calm     96 % 0.0 mm 0 W/m2
05:35 4.2 °C 3.4 °C 1023.2 hPa Calm     95 % 0.0 mm 0 W/m2
05:45 3.9 °C 3.4 °C 1023.2 hPa Calm     96 % 0.0 mm 0 W/m2
05:50 3.9 °C 3.4 °C 1023.2 hPa Calm     96 % 0.0 mm 0 W/m2
05:55 3.8 °C 3.3 °C 1023.2 hPa Calm     96 % 0.0 mm 0 W/m2
06:00 4.1 °C 3.5 °C 1023.2 hPa Calm     96 % 0.0 mm 0 W/m2
06:05 4.1 °C 3.5 °C 1023.2 hPa Calm     96 % 0.0 mm 0 W/m2
06:10 4.1 °C 3.5 °C 1023.2 hPa Calm     96 % 0.0 mm 0 W/m2
06:15 4.1 °C 3.5 °C 1023.2 hPa Calm     96 % 0.0 mm 0 W/m2
06:20 3.9 °C 3.3 °C 1023.2 hPa Calm     96 % 0.0 mm 0 W/m2
06:25 3.8 °C 3.3 °C 1023.2 hPa Calm     96 % 0.0 mm 0 W/m2
06:35 3.8 °C 3.2 °C 1023.2 hPa Calm     96 % 0.0 mm 0 W/m2
06:40 3.6 °C 3.0 °C 1023.2 hPa Calm     96 % 0.0 mm 0 W/m2
06:45 3.6 °C 3.0 °C 1023.2 hPa Calm     96 % 0.0 mm 0 W/m2
06:50 3.4 °C 2.9 °C 1023.2 hPa Calm     96 % 0.0 mm 0 W/m2
06:55 3.6 °C 3.0 °C 1022.9 hPa Calm     96 % 0.0 mm 0 W/m2
07:00 3.4 °C 2.9 °C 1022.9 hPa Calm     96 % 0.0 mm 0 W/m2
07:05 3.4 °C 2.9 °C 1022.9 hPa Calm     96 % 0.0 mm 0 W/m2
07:10 3.7 °C 3.1 °C 1023.2 hPa Calm     96 % 0.0 mm 0 W/m2
07:15 3.4 °C 2.9 °C 1023.2 hPa Calm     96 % 0.0 mm 0 W/m2
07:20 3.6 °C 3.0 °C 1023.2 hPa Calm     96 % 0.0 mm 5 W/m2
07:25 3.5 °C 2.9 °C 1023.2 hPa Calm     96 % 0.0 mm 7 W/m2
07:30 3.4 °C 2.9 °C 1023.2 hPa Calm     96 % 0.0 mm 11 W/m2
07:35 3.6 °C 3.0 °C 1023.2 hPa Calm     96 % 0.0 mm 14 W/m2
07:40 3.5 °C 2.9 °C 1023.2 hPa Calm   1.6 km/h 96 % 0.0 mm 18 W/m2
07:45 3.5 °C 2.9 °C 1023.2 hPa Calm   1.6 km/h 96 % 0.0 mm 21 W/m2
07:50 3.6 °C 3.0 °C 1023.2 hPa Calm     96 % 0.0 mm 23 W/m2
07:55 3.7 °C 3.1 °C 1023.2 hPa Calm     96 % 0.0 mm 25 W/m2
08:00 3.8 °C 3.4 °C 1023.2 hPa Calm     97 % 0.0 mm 28 W/m2
08:05 4.2 °C 3.7 °C 1023.2 hPa Calm     97 % 0.0 mm 30 W/m2
08:10 4.3 °C 3.8 °C 1023.2 hPa Calm     97 % 0.0 mm 32 W/m2
08:15 4.4 °C 4.0 °C 1023.2 hPa Calm     97 % 0.0 mm 35 W/m2
08:20 4.8 °C 4.4 °C 1023.6 hPa Calm     97 % 0.0 mm 39 W/m2
08:25 5.2 °C 4.8 °C 1023.2 hPa Calm     97 % 0.0 mm 120 W/m2
08:30 5.7 °C 5.2 °C 1023.6 hPa Calm     97 % 0.0 mm 144 W/m2
08:40 6.6 °C 6.1 °C 1023.6 hPa Calm     97 % 0.0 mm 176 W/m2
08:45 7.2 °C 6.7 °C 1023.6 hPa Calm   1.6 km/h 97 % 0.0 mm 190 W/m2
08:55 8.0 °C 7.6 °C 1023.6 hPa Calm   3.2 km/h 97 % 0.0 mm 223 W/m2
09:00 8.4 °C 7.9 °C 1023.6 hPa Calm   3.2 km/h 97 % 0.0 mm 239 W/m2
09:05 8.7 °C 8.1 °C 1023.6 hPa Calm   4.8 km/h 96 % 0.0 mm 253 W/m2
09:10 8.9 °C 8.3 °C 1023.6 hPa Calm   6.4 km/h 96 % 0.0 mm 269 W/m2
09:15 9.2 °C 8.6 °C 1023.6 hPa Calm   6.4 km/h 96 % 0.0 mm 283 W/m2
09:20 9.5 °C 8.7 °C 1023.6 hPa North 1.6 km/h 4.8 km/h 95 % 0.0 mm 299 W/m2
09:25 9.8 °C 8.9 °C 1023.6 hPa NNW 1.6 km/h 4.8 km/h 94 % 0.0 mm 315 W/m2
09:30 10.2 °C 9.1 °C 1023.6 hPa NNE 4.8 km/h 6.4 km/h 93 % 0.0 mm 327 W/m2
09:35 10.2 °C 8.8 °C 1023.6 hPa Calm   9.7 km/h 91 % 0.0 mm 345 W/m2
09:40 10.4 °C 8.8 °C 1023.6 hPa North 6.4 km/h 11.3 km/h 90 % 0.0 mm 359 W/m2
09:50 10.7 °C 8.8 °C 1023.6 hPa NE 3.2 km/h 11.3 km/h 88 % 0.0 mm 381 W/m2
09:55 10.8 °C 8.8 °C 1023.6 hPa NNE 1.6 km/h 11.3 km/h 87 % 0.0 mm 397 W/m2
10:05 11.4 °C 9.1 °C 1023.2 hPa Calm   9.7 km/h 86 % 0.0 mm 425 W/m2
10:10 11.6 °C 9.3 °C 1023.2 hPa North 1.6 km/h 9.7 km/h 86 % 0.0 mm 439 W/m2
10:15 11.7 °C 9.5 °C 1023.2 hPa NE 1.6 km/h 8.0 km/h 86 % 0.0 mm 455 W/m2
10:25 12.2 °C 9.5 °C 1023.2 hPa Calm   9.7 km/h 84 % 0.0 mm 482 W/m2
10:30 12.2 °C 9.2 °C 1023.2 hPa Calm   9.7 km/h 82 % 0.0 mm 497 W/m2
10:35 12.3 °C 9.7 °C 1023.2 hPa NNE 4.8 km/h 8.0 km/h 84 % 0.0 mm 512 W/m2
10:40 12.8 °C 9.8 °C 1023.2 hPa NNW 4.8 km/h 11.3 km/h 82 % 0.0 mm 526 W/m2
10:45 12.8 °C 9.4 °C 1023.2 hPa NW 3.2 km/h 11.3 km/h 80 % 0.0 mm 541 W/m2
10:50 12.7 °C 9.2 °C 1023.2 hPa NNW 3.2 km/h 12.9 km/h 79 % 0.0 mm 554 W/m2
10:55 13.3 °C 9.3 °C 1023.2 hPa NNE 3.2 km/h 12.9 km/h 77 % 0.0 mm 563 W/m2
11:00 13.6 °C 9.8 °C 1023.2 hPa NW 11.3 km/h 11.3 km/h 78 % 0.0 mm 577 W/m2
11:05 13.4 °C 9.0 °C 1023.2 hPa Calm   11.3 km/h 75 % 0.0 mm 589 W/m2
11:10 13.6 °C 9.7 °C 1023.2 hPa Calm   9.7 km/h 77 % 0.0 mm 603 W/m2
11:15 13.6 °C 9.3 °C 1023.2 hPa ENE 3.2 km/h 9.7 km/h 75 % 0.0 mm 615 W/m2
11:20 13.8 °C 9.2 °C 1023.2 hPa East 1.6 km/h 14.5 km/h 74 % 0.0 mm 624 W/m2
11:25 14.4 °C 10.0 °C 1023.2 hPa North 11.3 km/h 14.5 km/h 75 % 0.0 mm 636 W/m2
11:30 13.9 °C 8.7 °C 1023.2 hPa NNW 1.6 km/h 12.9 km/h 71 % 0.0 mm 652 W/m2
11:35 14.3 °C 9.7 °C 1023.2 hPa North 6.4 km/h 11.3 km/h 74 % 0.0 mm 663 W/m2
11:40 14.7 °C 9.7 °C 1023.2 hPa NE 4.8 km/h 14.5 km/h 72 % 0.0 mm 675 W/m2
11:45 14.4 °C 8.6 °C 1023.2 hPa NNW 4.8 km/h 14.5 km/h 68 % 0.0 mm 701 W/m2
11:50 14.3 °C 8.5 °C 1023.2 hPa NW 6.4 km/h 11.3 km/h 68 % 0.0 mm 749 W/m2
11:55 14.3 °C 8.9 °C 1023.2 hPa NNE 12.9 km/h 12.9 km/h 70 % 0.0 mm 809 W/m2
12:00 14.2 °C 8.6 °C 1023.2 hPa NE 1.6 km/h 12.9 km/h 69 % 0.0 mm 357 W/m2
12:05 14.2 °C 8.6 °C 1023.2 hPa East 3.2 km/h 12.9 km/h 69 % 0.0 mm 163 W/m2
12:10 14.2 °C 9.2 °C 1023.2 hPa NE 9.7 km/h 12.9 km/h 72 % 0.0 mm 816 W/m2
12:20 14.9 °C 9.5 °C 1023.2 hPa ENE 4.8 km/h 9.7 km/h 70 % 0.0 mm 329 W/m2
12:25 15.1 °C 9.4 °C 1022.9 hPa Calm   9.7 km/h 69 % 0.0 mm 988 W/m2
12:30 15.4 °C 9.3 °C 1022.9 hPa WNW 3.2 km/h 9.7 km/h 67 % 0.0 mm 272 W/m2
12:35 14.8 °C 9.1 °C 1023.2 hPa North 6.4 km/h 11.3 km/h 69 % 0.0 mm 308 W/m2
12:40 14.4 °C 8.8 °C 1023.2 hPa WNW 3.2 km/h 11.3 km/h 69 % 0.0 mm 269 W/m2
12:45 14.8 °C 8.9 °C 1022.9 hPa WNW 3.2 km/h 9.7 km/h 68 % 0.0 mm 316 W/m2
12:50 14.7 °C 8.8 °C 1022.9 hPa NNW 6.4 km/h 9.7 km/h 68 % 0.0 mm 454 W/m2
12:55 15.0 °C 8.5 °C 1022.9 hPa Calm   9.7 km/h 65 % 0.0 mm 299 W/m2
13:00 14.2 °C 8.8 °C 1022.9 hPa WNW 6.4 km/h 12.9 km/h 70 % 0.0 mm 297 W/m2
13:05 14.0 °C 9.0 °C 1022.9 hPa WNW 9.7 km/h 12.9 km/h 72 % 0.0 mm 260 W/m2
13:10 13.8 °C 9.2 °C 1022.9 hPa WNW 1.6 km/h 12.9 km/h 74 % 0.0 mm 1076 W/m2
13:15 14.4 °C 9.0 °C 1022.9 hPa WNW 4.8 km/h 11.3 km/h 70 % 0.0 mm 221 W/m2
13:20 14.7 °C 10.3 °C 1022.9 hPa WSW 4.8 km/h 11.3 km/h 75 % 0.0 mm 905 W/m2
13:25 15.3 °C 10.5 °C 1022.9 hPa WNW 6.4 km/h 9.7 km/h 73 % 0.0 mm 1143 W/m2
13:30 15.0 °C 10.2 °C 1022.9 hPa West 8.0 km/h 11.3 km/h 73 % 0.0 mm 360 W/m2
13:35 14.4 °C 9.8 °C 1022.9 hPa WSW 6.4 km/h 11.3 km/h 74 % 0.0 mm 348 W/m2
13:40 14.3 °C 9.5 °C 1022.9 hPa WNW 8.0 km/h 11.3 km/h 73 % 0.0 mm 353 W/m2
13:45 13.8 °C 9.5 °C 1022.9 hPa West 8.0 km/h 16.1 km/h 75 % 0.0 mm 308 W/m2
13:50 13.8 °C 9.6 °C 1022.9 hPa West 6.4 km/h 16.1 km/h 76 % 0.0 mm 341 W/m2
13:55 14.3 °C 10.0 °C 1022.9 hPa West 6.4 km/h 14.5 km/h 75 % 0.0 mm 1095 W/m2
14:00 14.3 °C 9.7 °C 1022.9 hPa WSW 6.4 km/h 17.7 km/h 74 % 0.0 mm 367 W/m2
14:05 13.9 °C 9.7 °C 1022.6 hPa WNW 4.8 km/h 17.7 km/h 76 % 0.0 mm 343 W/m2
14:10 13.9 °C 9.7 °C 1022.6 hPa WNW 4.8 km/h 14.5 km/h 76 % 0.0 mm 306 W/m2
14:15 14.3 °C 10.5 °C 1022.6 hPa West 6.4 km/h 16.1 km/h 78 % 0.0 mm 879 W/m2
14:20 14.8 °C 10.2 °C 1022.6 hPa WNW 8.0 km/h 16.1 km/h 74 % 0.0 mm 939 W/m2
14:25 14.9 °C 10.5 °C 1022.6 hPa West 11.3 km/h 16.1 km/h 75 % 0.0 mm 555 W/m2
14:30 15.2 °C 10.8 °C 1022.6 hPa SW 6.4 km/h 16.1 km/h 75 % 0.0 mm 520 W/m2
14:35 14.6 °C 10.0 °C 1022.6 hPa WSW 11.3 km/h 16.1 km/h 74 % 0.0 mm 359 W/m2
14:40 13.9 °C 9.6 °C 1022.9 hPa West 9.7 km/h 19.3 km/h 75 % 0.0 mm 341 W/m2
14:45 13.7 °C 9.5 °C 1022.9 hPa West 9.7 km/h 19.3 km/h 76 % 0.0 mm 309 W/m2
14:50 13.7 °C 9.9 °C 1022.9 hPa WNW 8.0 km/h 17.7 km/h 78 % 0.0 mm 334 W/m2
14:55 13.6 °C 9.8 °C 1022.9 hPa West 12.9 km/h 19.3 km/h 78 % 0.0 mm 353 W/m2
15:00 13.9 °C 10.5 °C 1022.9 hPa WNW 11.3 km/h 19.3 km/h 80 % 0.0 mm 408 W/m2
15:05 14.0 °C 10.4 °C 1022.6 hPa West 9.7 km/h 17.7 km/h 79 % 0.0 mm 545 W/m2
15:10 14.8 °C 11.0 °C 1022.6 hPa West 14.5 km/h 17.7 km/h 78 % 0.0 mm 1174 W/m2
15:15 14.7 °C 10.1 °C 1022.6 hPa SW 9.7 km/h 19.3 km/h 74 % 0.0 mm 475 W/m2
15:20 14.7 °C 10.3 °C 1022.6 hPa NW 8.0 km/h 19.3 km/h 75 % 0.0 mm 397 W/m2
15:25 14.4 °C 10.4 °C 1022.6 hPa West 9.7 km/h 16.1 km/h 77 % 0.0 mm 313 W/m2
15:30 13.8 °C 9.6 °C 1022.6 hPa WNW 14.5 km/h 19.3 km/h 76 % 0.0 mm 320 W/m2
15:35 13.8 °C 10.3 °C 1022.6 hPa West 6.4 km/h 19.3 km/h 79 % 0.0 mm 469 W/m2
15:40 14.1 °C 10.3 °C 1022.6 hPa WNW 8.0 km/h 17.7 km/h 78 % 0.0 mm 454 W/m2
15:45 14.7 °C 10.5 °C 1022.6 hPa WSW 9.7 km/h 17.7 km/h 76 % 0.0 mm 680 W/m2
15:50 15.1 °C 10.7 °C 1022.6 hPa NW 9.7 km/h 19.3 km/h 75 % 0.0 mm 680 W/m2
15:55 14.7 °C 10.3 °C 1022.6 hPa SW 12.9 km/h 24.1 km/h 75 % 0.0 mm 294 W/m2
16:00 14.1 °C 10.5 °C 1022.6 hPa WSW 6.4 km/h 24.1 km/h 79 % 0.0 mm 243 W/m2
16:05 13.8 °C 10.4 °C 1022.2 hPa WSW 8.0 km/h 20.9 km/h 80 % 0.0 mm 236 W/m2
16:10 13.8 °C 10.6 °C 1022.2 hPa West 8.0 km/h 17.7 km/h 81 % 0.0 mm 236 W/m2
16:15 13.9 °C 10.9 °C 1022.2 hPa WNW 3.2 km/h 16.1 km/h 82 % 0.0 mm 253 W/m2
16:20 14.0 °C 11.0 °C 1022.2 hPa WNW 8.0 km/h 16.1 km/h 82 % 0.0 mm 239 W/m2
16:25 13.8 °C 10.8 °C 1022.2 hPa WNW 6.4 km/h 16.1 km/h 82 % 0.0 mm 199 W/m2
16:30 13.9 °C 10.9 °C 1022.2 hPa West 11.3 km/h 16.1 km/h 82 % 0.0 mm 221 W/m2
16:35 13.9 °C 10.9 °C 1022.2 hPa West 4.8 km/h 14.5 km/h 82 % 0.0 mm 269 W/m2
16:40 14.4 °C 11.4 °C 1022.2 hPa Calm   12.9 km/h 82 % 0.0 mm 290 W/m2
16:45 14.5 °C 11.1 °C 1022.2 hPa West 9.7 km/h 12.9 km/h 80 % 0.0 mm 311 W/m2
16:50 14.7 °C 11.5 °C 1022.2 hPa SW 6.4 km/h 12.9 km/h 81 % 0.0 mm 327 W/m2
16:55 15.1 °C 11.6 °C 1022.2 hPa WNW 6.4 km/h 12.9 km/h 80 % 0.0 mm 427 W/m2
17:00 15.4 °C 11.6 °C 1022.2 hPa West 9.7 km/h 14.5 km/h 78 % 0.0 mm 754 W/m2
17:05 15.6 °C 11.3 °C 1022.2 hPa WSW 14.5 km/h 14.5 km/h 76 % 0.0 mm 779 W/m2
17:10 15.6 °C 11.2 °C 1021.9 hPa WSW 4.8 km/h 14.5 km/h 75 % 0.0 mm 489 W/m2
17:15 15.3 °C 10.9 °C 1021.9 hPa West 6.4 km/h 14.5 km/h 75 % 0.0 mm 264 W/m2
17:20 15.1 °C 11.1 °C 1021.9 hPa West 4.8 km/h 14.5 km/h 77 % 0.0 mm 221 W/m2
17:25 14.6 °C 10.6 °C 1021.9 hPa West 4.8 km/h 17.7 km/h 77 % 0.0 mm 207 W/m2
17:30 14.4 °C 10.8 °C 1021.9 hPa West 4.8 km/h 17.7 km/h 79 % 0.0 mm 229 W/m2
17:35 14.4 °C 11.0 °C 1021.9 hPa NW 6.4 km/h 16.1 km/h 80 % 0.0 mm 260 W/m2
17:40 14.9 °C 11.5 °C 1021.9 hPa WNW 4.8 km/h 16.1 km/h 80 % 0.0 mm 274 W/m2
17:45 15.1 °C 11.1 °C 1021.9 hPa West 12.9 km/h 14.5 km/h 77 % 0.0 mm 250 W/m2
17:50 14.9 °C 11.3 °C 1021.9 hPa WSW 4.8 km/h 16.1 km/h 79 % 0.0 mm 283 W/m2
18:00 14.9 °C 11.1 °C 1021.9 hPa West 8.0 km/h 14.5 km/h 78 % 0.0 mm 181 W/m2
18:05 14.7 °C 11.1 °C 1021.9 hPa West 8.0 km/h 14.5 km/h 79 % 0.0 mm 185 W/m2
18:10 14.6 °C 11.4 °C 1021.9 hPa WNW 8.0 km/h 11.3 km/h 81 % 0.0 mm 195 W/m2
18:15 14.6 °C 11.3 °C 1021.9 hPa WSW 3.2 km/h 11.3 km/h 81 % 0.0 mm 181 W/m2
18:20 14.8 °C 11.8 °C 1021.9 hPa WSW 3.2 km/h 11.3 km/h 82 % 0.0 mm 172 W/m2
18:25 15.1 °C 11.8 °C 1021.9 hPa Calm   8.0 km/h 81 % 0.0 mm 156 W/m2
18:30 14.9 °C 10.9 °C 1021.9 hPa WSW 3.2 km/h 4.8 km/h 77 % 0.0 mm 162 W/m2
18:35 14.9 °C 10.7 °C 1021.9 hPa Calm   4.8 km/h 76 % 0.0 mm 160 W/m2
18:40 15.2 °C 10.8 °C 1021.9 hPa Calm   4.8 km/h 75 % 0.0 mm 148 W/m2
18:45 15.3 °C 11.1 °C 1021.9 hPa Calm   4.8 km/h 76 % 0.0 mm 141 W/m2
18:50 15.3 °C 10.1 °C 1021.9 hPa NNE 12.9 km/h 12.9 km/h 71 % 0.0 mm 149 W/m2
18:55 15.4 °C 10.0 °C 1021.9 hPa North 3.2 km/h 14.5 km/h 70 % 0.0 mm 139 W/m2
19:00 15.4 °C 9.7 °C 1021.9 hPa NNE 3.2 km/h 14.5 km/h 69 % 0.0 mm 118 W/m2
19:05 15.3 °C 9.4 °C 1021.9 hPa North 1.6 km/h 14.5 km/h 68 % 0.0 mm 107 W/m2
19:10 15.2 °C 8.9 °C 1021.9 hPa NNW 9.7 km/h 14.5 km/h 66 % 0.0 mm 104 W/m2
19:15 15.1 °C 8.8 °C 1021.9 hPa NNE 3.2 km/h 12.9 km/h 66 % 0.0 mm 91 W/m2
19:20 15.0 °C 9.4 °C 1021.9 hPa Calm   12.9 km/h 69 % 0.0 mm 77 W/m2
19:25 14.8 °C 8.8 °C 1021.9 hPa NNE 8.0 km/h 14.5 km/h 67 % 0.0 mm 67 W/m2
19:30 14.7 °C 8.7 °C 1021.9 hPa NNE 3.2 km/h 14.5 km/h 67 % 0.0 mm 56 W/m2
19:35 14.3 °C 9.6 °C 1021.9 hPa ENE 1.6 km/h 9.7 km/h 73 % 0.0 mm 46 W/m2
19:40 13.9 °C 9.2 °C 1021.9 hPa North 4.8 km/h 9.7 km/h 73 % 0.0 mm 39 W/m2
19:45 13.7 °C 9.0 °C 1021.9 hPa North 1.6 km/h 8.0 km/h 73 % 0.0 mm 40 W/m2
19:50 13.6 °C 9.1 °C 1021.9 hPa NNE 6.4 km/h 9.7 km/h 74 % 0.0 mm 39 W/m2
19:55 13.8 °C 8.5 °C 1021.9 hPa NE 1.6 km/h 11.3 km/h 70 % 0.0 mm 97 W/m2
20:00 13.9 °C 8.8 °C 1021.9 hPa NE 4.8 km/h 11.3 km/h 71 % 0.0 mm 81 W/m2
20:05 14.1 °C 8.7 °C 1021.9 hPa NNE 8.0 km/h 11.3 km/h 70 % 0.0 mm 39 W/m2
20:10 13.9 °C 8.9 °C 1021.9 hPa NNE 3.2 km/h 11.3 km/h 72 % 0.0 mm 39 W/m2
20:15 13.7 °C 8.9 °C 1022.2 hPa NNE 1.6 km/h 9.7 km/h 73 % 0.0 mm 28 W/m2
20:20 13.4 °C 8.9 °C 1022.2 hPa NE 1.6 km/h 9.7 km/h 74 % 0.0 mm 26 W/m2
20:25 13.3 °C 8.9 °C 1022.2 hPa NNE 1.6 km/h 8.0 km/h 75 % 0.0 mm 23 W/m2
20:30 13.1 °C 9.0 °C 1022.2 hPa Calm   6.4 km/h 76 % 0.0 mm 18 W/m2
20:35 12.9 °C 8.8 °C 1022.2 hPa North 4.8 km/h 9.7 km/h 76 % 0.0 mm 14 W/m2
20:40 12.7 °C 8.7 °C 1022.2 hPa NNE 1.6 km/h 9.7 km/h 77 % 0.0 mm 12 W/m2
20:45 12.3 °C 8.7 °C 1022.2 hPa NNE 1.6 km/h 8.0 km/h 79 % 0.0 mm 9 W/m2
20:50 12.1 °C 8.5 °C 1022.2 hPa Calm   6.4 km/h 79 % 0.0 mm 7 W/m2
20:55 11.8 °C 8.5 °C 1022.2 hPa Calm   6.4 km/h 80 % 0.0 mm 5 W/m2
21:00 11.6 °C 8.5 °C 1022.6 hPa NE 1.6 km/h 8.0 km/h 81 % 0.0 mm 0 W/m2
21:05 11.8 °C 8.4 °C 1022.6 hPa NE 4.8 km/h 12.9 km/h 80 % 0.0 mm 0 W/m2
21:10 11.8 °C 8.5 °C 1022.6 hPa ENE 6.4 km/h 12.9 km/h 80 % 0.0 mm 0 W/m2
21:15 12.0 °C 8.3 °C 1022.6 hPa ENE 11.3 km/h 12.9 km/h 78 % 0.0 mm 0 W/m2
21:20 12.2 °C 8.3 °C 1022.6 hPa North 3.2 km/h 14.5 km/h 77 % 0.0 mm 0 W/m2
21:25 12.2 °C 8.1 °C 1022.6 hPa NNW 8.0 km/h 14.5 km/h 76 % 0.0 mm 0 W/m2
21:30 12.2 °C 8.1 °C 1022.9 hPa NNE 4.8 km/h 12.9 km/h 76 % 0.0 mm 0 W/m2
21:35 12.0 °C 7.9 °C 1022.9 hPa NE 9.7 km/h 14.5 km/h 76 % 0.0 mm 0 W/m2
21:40 12.1 °C 8.0 °C 1022.9 hPa NE 1.6 km/h 14.5 km/h 76 % 0.0 mm 0 W/m2
21:45 12.1 °C 8.0 °C 1022.9 hPa Calm   12.9 km/h 76 % 0.0 mm 0 W/m2
21:50 11.9 °C 8.0 °C 1023.2 hPa NNE 6.4 km/h 12.9 km/h 77 % 0.0 mm 0 W/m2
21:55 12.1 °C 8.0 °C 1023.2 hPa East 3.2 km/h 12.9 km/h 76 % 0.0 mm 0 W/m2
22:00 12.1 °C 8.0 °C 1023.2 hPa North 3.2 km/h 12.9 km/h 76 % 0.0 mm 0 W/m2
22:05 12.1 °C 8.0 °C 1023.2 hPa NNE 1.6 km/h 12.9 km/h 76 % 0.0 mm 0 W/m2
22:10 11.9 °C 7.8 °C 1023.2 hPa NNE 9.7 km/h 12.9 km/h 76 % 0.0 mm 0 W/m2
22:15 11.7 °C 7.8 °C 1023.2 hPa ENE 16.1 km/h 16.1 km/h 77 % 0.0 mm 0 W/m2
22:20 11.4 °C 7.7 °C 1023.2 hPa NNE 1.6 km/h 16.1 km/h 78 % 0.0 mm 0 W/m2
22:25 11.3 °C 7.6 °C 1023.6 hPa NNE 6.4 km/h 12.9 km/h 78 % 0.0 mm 0 W/m2
22:30 11.3 °C 7.6 °C 1023.6 hPa Calm   11.3 km/h 78 % 0.0 mm 0 W/m2
22:35 11.1 °C 7.6 °C 1023.6 hPa NNE 4.8 km/h 11.3 km/h 79 % 0.0 mm 0 W/m2
22:40 10.9 °C 7.4 °C 1023.6 hPa NNE 3.2 km/h 9.7 km/h 79 % 0.0 mm 0 W/m2
22:45 10.7 °C 7.4 °C 1023.6 hPa NNE 4.8 km/h 9.7 km/h 80 % 0.0 mm 0 W/m2
22:50 10.7 °C 7.4 °C 1023.6 hPa Calm   9.7 km/h 80 % 0.0 mm 0 W/m2
22:55 10.4 °C 7.1 °C 1023.6 hPa NE 3.2 km/h 9.7 km/h 80 % 0.0 mm 0 W/m2
23:00 10.2 °C 7.1 °C 1023.9 hPa NNE 6.4 km/h 9.7 km/h 81 % 0.0 mm 0 W/m2
23:05 10.1 °C 6.9 °C 1023.9 hPa NE 4.8 km/h 9.7 km/h 81 % 0.0 mm 0 W/m2
23:10 9.9 °C 6.8 °C 1023.6 hPa NE 1.6 km/h 9.7 km/h 81 % 0.0 mm 0 W/m2
23:15 9.7 °C 6.8 °C 1023.6 hPa NE 3.2 km/h 9.7 km/h 82 % 0.0 mm 0 W/m2
23:20 9.4 °C 6.7 °C 1023.9 hPa NE 6.4 km/h 9.7 km/h 83 % 0.0 mm 0 W/m2
23:25 9.4 °C 6.6 °C 1023.9 hPa NE 1.6 km/h 9.7 km/h 83 % 0.0 mm 0 W/m2
23:30 9.3 °C 6.7 °C 1023.9 hPa NE 4.8 km/h 6.4 km/h 84 % 0.0 mm 0 W/m2
23:35 9.2 °C 6.7 °C 1023.9 hPa NE 3.2 km/h 8.0 km/h 84 % 0.0 mm 0 W/m2
23:40 9.2 °C 6.7 °C 1023.6 hPa NNE 4.8 km/h 8.0 km/h 84 % 0.0 mm 0 W/m2
23:45 9.2 °C 6.6 °C 1023.9 hPa NNE 3.2 km/h 11.3 km/h 84 % 0.0 mm 0 W/m2
23:50 9.2 °C 6.6 °C 1023.9 hPa NE 1.6 km/h 11.3 km/h 84 % 0.0 mm 0 W/m2
23:55 9.4 °C 6.8 °C 1023.9 hPa NE 3.2 km/h 9.7 km/h 84 % 0.0 mm 0 W/m2
Avec l'autorisation de Weather Underground - 1.75 mb